Stonewall, MS (39363)

10:27 PM CDT on August 22, 2014 (GMT -0500)
Key | Change Station
CLOSE
Current Station
Airport
Location: Meridian,
Elevation: 308 ft
Nearby Weather Stations

Elev 308 ft 32.33 °N, 88.75 °W | Updated 29 minutes ago

Clear
Clear
78 °F
Feels Like 78 °F
N
5
Wind Variable Wind from South

Today
High -- | Low -- °F
--% Chance of Precip.
Yesterday
High -- | Low -- °F
Precip. -- in
6:24 AM 7:31 PM
Waning Crescent, 5% visible
Pressure 30.01 in
Visibility 10.0 miles
Clouds Clear
Dew Point 73 °F
Humidity 84%
Rainfall 0.02 in
Snow Depth Not available.
UV 0 out of 12
Pollen 8.80 out of 12
Air Quality Not available.
Flu Activity Not available.
METAR KMEI 230258Z AUTO 18004KT 10SM CLR 26/23 A3003 RMK AO2 SLP163 T02560228 51005

More Conditions Fewer Conditions

Pressure 30.01 in
Visibility 10.0 miles
Clouds Clear
Dew Point 73 °F
Humidity 84%
Rainfall 0.02 in
Snow Depth Not available.
UV 0 out of 12
Pollen 8.80 out of 12
Air Quality Not available.
Flu Activity Not available.
METAR KMEI 230258Z AUTO 18004KT 10SM CLR 26/23 A3003 RMK AO2 SLP163 T02560228 51005

More Conditions Fewer Conditions

10-Day Weather Forecast

Almanac

Astronomy

Aug. 22, 2014 Rise Set
Actual Time 6:24 AM CDT 7:31 PM CDT
Civil Twilight 5:58 AM CDT 7:56 PM CDT
Nautical Twilight 5:28 AM CDT 8:26 PM CDT
Astronomical Twilight 4:57 AM CDT 8:58 PM CDT
Moon 3:51 AM CDT (8/22) 5:36 PM CDT (8/22)
Length of Visible Light 13h 58m
Length of Day
13h 07m
Tomorrow will be 1m 49s shorter.
Waning Crescent, 5% of the Moon is Illuminated
Today
Waning Crescent
Aug 25
New
Sep 2
First Quarter
Sep 8
Full
Sep 15
Last Quarter

Today's Extremes

State Highs State Lows

Community

WunderPhotos

Upload Photos

1,746,345 photos uploaded!

WunderBlogs® & News

Nearby

Snow Depth

Station Depth Elevation
No new snow has been reported.

Earthquake Activity

City Distance Mag. Time & Date
No recent earthquake activity has been reported nearby.
Minimum magnitude displayed is 2.5.

Coastal Water Temperatures

Place Temperature
No Stations Reporting

Nearby Weather Stations